createdAt,value
2022-08-03T00:04:43.214Z,95882.84
2022-08-03T00:10:03.841Z,95876.22
2022-08-03T00:15:11.155Z,95869.19
2022-08-03T00:20:36.202Z,95867.97
2022-08-03T00:25:40.553Z,95867.97
2022-08-03T00:30:42.643Z,95866.47
2022-08-03T00:35:50.606Z,95871.00
2022-08-03T00:40:53.197Z,95867.72
2022-08-03T00:45:55.444Z,95862.34
2022-08-03T00:51:16.159Z,95866.59
2022-08-03T00:56:18.819Z,95858.63
2022-08-03T01:01:39.451Z,95868.03
2022-08-03T01:07:18.123Z,95869.22
2022-08-03T01:12:38.443Z,95859.69
2022-08-03T01:18:17.253Z,95864.03
2022-08-03T01:24:20.154Z,95862.59
2022-08-03T01:30:12.758Z,95856.78
2022-08-03T01:35:23.157Z,95867.31
2022-08-03T01:40:45.474Z,95869.94
2022-08-03T01:45:48.862Z,95873.03
2022-08-03T01:50:52.467Z,95865.53
2022-08-03T01:55:58.973Z,95863.16
2022-08-03T02:01:03.466Z,95860.41
2022-08-03T02:07:01.100Z,95853.78
2022-08-03T02:11:35.294Z,95855.00
2022-08-03T02:16:37.663Z,95853.31
2022-08-03T02:22:01.265Z,95849.09
2022-08-03T02:27:13.002Z,95850.72
2022-08-03T02:32:20.560Z,95852.13
2022-08-03T02:37:27.172Z,95851.44
2022-08-03T02:42:51.993Z,95848.44
2022-08-03T02:48:16.274Z,95846.63
2022-08-03T02:53:19.920Z,95856.50
2022-08-03T02:58:24.862Z,95856.56
2022-08-03T03:03:29.781Z,95848.44
2022-08-03T03:08:37.512Z,95852.28
2022-08-03T03:13:45.151Z,95843.66
2022-08-03T03:19:06.233Z,95845.91
2022-08-03T03:24:10.113Z,95847.03
2022-08-03T03:29:13.207Z,95852.19
2022-08-03T03:34:34.033Z,95846.53
2022-08-03T03:39:36.281Z,95845.41
2022-08-03T03:44:38.846Z,95836.72
2022-08-03T03:49:41.921Z,95850.88
2022-08-03T03:55:02.611Z,95847.44
2022-08-03T04:00:05.700Z,95855.72
2022-08-03T04:05:26.600Z,95857.19
2022-08-03T04:10:31.774Z,95856.38
2022-08-03T04:15:54.712Z,95859.84
2022-08-03T04:20:59.641Z,95862.84
2022-08-03T04:26:23.202Z,95863.22
2022-08-03T04:31:45.611Z,95855.59
2022-08-03T04:36:58.212Z,95866.28
2022-08-03T04:42:22.712Z,95871.25
2022-08-03T04:47:25.401Z,95874.69
2022-08-03T04:52:46.265Z,95875.34
2022-08-03T04:57:49.211Z,95871.66
2022-08-03T05:03:24.040Z,95880.75
2022-08-03T05:08:28.419Z,95888.81
2022-08-03T05:13:30.661Z,95885.97
2022-08-03T05:18:59.062Z,95886.41
2022-08-03T05:24:19.625Z,95890.78
2022-08-03T05:29:42.965Z,95892.69
2022-08-03T05:36:01.458Z,95892.81
2022-08-03T05:40:56.797Z,95889.56
2022-08-03T05:46:11.400Z,95896.72
2022-08-03T05:51:17.463Z,95899.06
2022-08-03T05:56:38.055Z,95888.47
2022-08-03T06:01:42.807Z,95894.31
2022-08-03T06:06:47.197Z,95889.69
2022-08-03T06:12:11.183Z,95878.13
2022-08-03T06:17:16.316Z,95880.81
2022-08-03T06:22:37.415Z,95892.72
2022-08-03T06:27:52.655Z,95883.41
2022-08-03T06:33:15.206Z,95882.47
2022-08-03T06:38:36.175Z,95892.81
2022-08-03T06:44:02.982Z,95894.97
2022-08-03T06:49:21.481Z,95891.63
2022-08-03T06:54:41.807Z,95894.19
2022-08-03T07:00:10.409Z,95901.13
2022-08-03T07:05:06.985Z,95891.47
2022-08-03T07:10:27.416Z,95895.75
2022-08-03T07:15:55.374Z,95893.59
2022-08-03T07:21:01.172Z,95894.13
2022-08-03T07:26:06.770Z,95904.44
2022-08-03T07:31:27.697Z,95911.34
2022-08-03T07:36:36.416Z,95910.91
2022-08-03T07:41:57.116Z,95904.00
2022-08-03T07:46:59.732Z,95909.03
2022-08-03T07:52:05.622Z,95909.97
2022-08-03T07:57:26.195Z,95915.31
2022-08-03T08:02:28.227Z,95905.50
2022-08-03T08:07:30.356Z,95909.56
2022-08-03T08:12:32.839Z,95908.81
2022-08-03T08:17:56.138Z,95908.00
2022-08-03T08:23:42.336Z,95905.28
2022-08-03T08:28:44.334Z,95904.41
2022-08-03T08:34:03.552Z,95903.06
2022-08-03T08:39:06.039Z,95905.06
2022-08-03T08:44:09.135Z,95900.22
2022-08-03T08:49:17.194Z,95897.16
2022-08-03T08:54:40.414Z,95892.97
2022-08-03T08:59:47.995Z,95889.00
2022-08-03T09:04:52.073Z,95895.19
2022-08-03T09:10:14.780Z,95897.53
2022-08-03T09:15:27.801Z,95898.16
2022-08-03T09:20:39.882Z,95897.13
2022-08-03T09:25:43.034Z,95894.78
2022-08-03T09:30:59.350Z,95889.56
2022-08-03T09:36:01.454Z,95897.56
2022-08-03T09:41:17.581Z,95899.09
2022-08-03T09:46:57.241Z,95894.66
2022-08-03T09:52:33.709Z,95897.28
2022-08-03T09:57:39.695Z,95899.91
2022-08-03T10:03:06.803Z,95892.41
2022-08-03T10:08:27.987Z,95886.22
2022-08-03T10:13:30.662Z,95883.03
2022-08-03T10:18:32.915Z,95883.19
2022-08-03T10:23:35.916Z,95880.50
2022-08-03T10:28:59.941Z,95882.31
2022-08-03T10:34:27.028Z,95873.88
2022-08-03T10:39:30.756Z,95871.13
2022-08-03T10:44:40.537Z,95866.47
2022-08-03T10:49:43.928Z,95854.59
2022-08-03T10:54:51.083Z,95854.34
2022-08-03T10:59:56.310Z,95853.75
2022-08-03T11:05:31.517Z,95858.44
2022-08-03T11:10:58.414Z,95845.56
2022-08-03T11:16:22.042Z,95843.84
2022-08-03T11:21:49.273Z,95845.72
2022-08-03T11:27:18.482Z,95846.25
2022-08-03T11:32:39.315Z,95836.34
2022-08-03T11:38:04.656Z,95834.03
2022-08-03T11:43:30.702Z,95833.53
2022-08-03T11:48:38.993Z,95826.97
2022-08-03T11:53:42.057Z,95825.00
2022-08-03T11:59:19.964Z,95808.88
2022-08-03T12:04:57.215Z,95815.03
2022-08-03T12:10:18.044Z,95814.69
2022-08-03T12:15:29.441Z,95800.41
2022-08-03T12:20:54.102Z,95808.94
2022-08-03T12:26:16.955Z,95811.75
2022-08-03T13:39:35.513Z,95759.75
2022-08-03T13:45:16.036Z,95764.19
2022-08-03T13:50:18.714Z,95765.31
2022-08-03T13:55:20.855Z,95752.75
2022-08-03T14:00:42.153Z,95747.41
2022-08-03T14:05:44.530Z,95748.56
2022-08-03T14:10:47.157Z,95743.22
2022-08-03T14:15:50.967Z,95740.38
2022-08-03T14:21:13.354Z,95725.72
2022-08-03T14:26:16.285Z,95728.94
2022-08-03T14:32:09.822Z,95722.59
2022-08-03T14:37:00.597Z,95720.97
2022-08-03T14:42:23.999Z,95714.25
2022-08-03T14:47:26.144Z,95709.38
2022-08-03T14:52:29.166Z,95703.31
2022-08-03T14:57:31.278Z,95712.66
2022-08-03T15:02:51.661Z,95709.63
2022-08-03T15:08:12.452Z,95706.97
2022-08-03T15:13:33.275Z,95695.03
2022-08-03T15:18:35.462Z,95694.22
2022-08-03T15:23:37.678Z,95683.91
2022-08-03T15:28:58.255Z,95680.97
2022-08-03T15:34:20.206Z,95669.75
2022-08-03T15:39:22.512Z,95674.56
2022-08-03T15:44:43.458Z,95670.69
2022-08-03T15:50:09.460Z,95670.38
2022-08-03T15:55:30.644Z,95664.72
2022-08-03T16:00:33.421Z,95660.41
2022-08-03T16:05:55.382Z,95648.06
2022-08-03T16:11:03.763Z,95645.44
2022-08-03T16:16:07.158Z,95645.31
2022-08-03T16:21:33.739Z,95641.81
2022-08-03T16:26:50.433Z,95648.25
2022-08-03T16:32:07.367Z,95640.69
2022-08-03T16:37:37.725Z,95643.84
2022-08-03T16:42:43.878Z,95639.38
2022-08-03T16:48:08.016Z,95640.06
2022-08-03T16:53:16.468Z,95636.78
2022-08-03T16:58:42.450Z,95643.34
2022-08-03T17:04:02.221Z,95645.63
2022-08-03T17:09:13.406Z,95642.34
2022-08-03T17:14:22.370Z,95638.31
2022-08-03T17:19:25.695Z,95641.38
2022-08-03T17:24:33.378Z,95644.63
2022-08-03T17:30:01.735Z,95646.91
2022-08-03T17:35:06.794Z,95644.56
2022-08-03T17:40:29.339Z,95644.59
2022-08-03T17:45:52.313Z,95652.78
2022-08-03T17:51:22.144Z,95656.38
2022-08-03T17:56:45.047Z,95663.47
2022-08-03T18:02:02.095Z,95665.19
2022-08-03T18:07:12.414Z,95662.88
2022-08-03T18:12:26.476Z,95662.06
2022-08-03T18:17:55.750Z,95673.59
2022-08-03T18:22:56.975Z,95671.44
2022-08-03T18:27:59.995Z,95669.28
2022-08-03T18:34:17.193Z,95670.84
2022-08-03T18:38:45.739Z,95668.69
2022-08-03T18:44:06.710Z,95671.34
2022-08-03T18:49:29.440Z,95667.09
2022-08-03T18:55:09.483Z,95675.75
2022-08-03T19:00:42.413Z,95678.44
2022-08-03T19:06:13.394Z,95681.69
2022-08-03T19:12:13.874Z,95672.34
2022-08-03T19:17:21.302Z,95689.44
2022-08-03T19:22:25.645Z,95693.00
2022-08-03T19:27:31.297Z,95699.72
2022-08-03T19:32:54.157Z,95702.00
2022-08-03T19:38:00.059Z,95709.09
2022-08-03T19:43:53.275Z,95703.50
2022-08-03T19:49:20.564Z,95709.84
2022-08-03T19:54:29.928Z,95708.00
2022-08-03T19:59:49.847Z,95705.47
2022-08-03T20:05:00.014Z,95708.31
2022-08-03T20:10:23.295Z,95713.13
2022-08-03T20:15:31.586Z,95714.50
2022-08-03T20:20:55.408Z,95717.41
2022-08-03T20:26:18.574Z,95715.56
2022-08-03T20:31:32.667Z,95713.66
2022-08-03T20:36:38.414Z,95703.88
2022-08-03T20:41:41.515Z,95701.09
2022-08-03T20:47:04.497Z,95708.63
2022-08-03T20:52:18.857Z,95705.03
2022-08-03T20:57:22.114Z,95696.53
2022-08-03T21:02:43.635Z,95702.03
2022-08-03T21:08:07.189Z,95696.59
2022-08-03T21:13:37.055Z,95702.66
2022-08-03T21:18:50.614Z,95707.09
2022-08-03T21:24:13.083Z,95701.19
2022-08-03T21:29:53.288Z,95693.97
2022-08-03T21:35:15.554Z,95695.38
2022-08-03T21:40:17.895Z,95696.06
2022-08-03T21:45:20.130Z,95701.50
2022-08-03T21:50:42.462Z,95694.81
2022-08-03T21:56:08.033Z,95697.53
2022-08-03T22:01:10.341Z,95698.09
2022-08-03T22:06:31.474Z,95702.19
2022-08-03T22:11:52.762Z,95699.97
2022-08-03T22:17:14.482Z,95711.81
2022-08-03T22:22:57.281Z,95708.06
2022-08-03T22:28:03.566Z,95713.66
2022-08-03T22:33:28.234Z,95713.88
2022-08-03T22:38:32.794Z,95718.16
2022-08-03T22:43:54.883Z,95730.09
2022-08-03T22:48:59.291Z,95728.69
2022-08-03T22:54:05.543Z,95722.28
2022-08-03T22:59:39.939Z,95731.97
2022-08-03T23:04:33.473Z,95729.72
2022-08-03T23:09:36.882Z,95733.44
2022-08-03T23:14:40.595Z,95724.94
2022-08-03T23:19:44.842Z,95730.06
2022-08-03T23:24:47.675Z,95732.75
2022-08-03T23:30:10.478Z,95726.31
2022-08-03T23:35:13.921Z,95723.84
2022-08-03T23:40:16.115Z,95726.09
2022-08-03T23:45:20.175Z,95723.19
2022-08-03T23:50:22.458Z,95725.78
2022-08-03T23:55:58.300Z,95728.16
